sensor_id;sensor_type;location;lat;lon;timestamp;P1;durP1;ratioP1;P2;durP2;ratioP2
22068;SDS011;13887;57.196;-2.100;2023-02-11T00:00:21;12.00;;;11.60;;
22068;SDS011;13887;57.196;-2.100;2023-02-11T00:02:48;11.80;;;11.40;;
22068;SDS011;13887;57.196;-2.100;2023-02-11T00:05:15;11.30;;;10.93;;
22068;SDS011;13887;57.196;-2.100;2023-02-11T00:07:42;11.90;;;11.50;;
22068;SDS011;13887;57.196;-2.100;2023-02-11T00:10:09;12.40;;;12.00;;
22068;SDS011;13887;57.196;-2.100;2023-02-11T00:12:36;11.07;;;10.77;;
22068;SDS011;13887;57.196;-2.100;2023-02-11T00:15:05;12.00;;;11.60;;
22068;SDS011;13887;57.196;-2.100;2023-02-11T00:17:33;12.27;;;11.87;;
22068;SDS011;13887;57.196;-2.100;2023-02-11T00:20:00;12.20;;;11.80;;
22068;SDS011;13887;57.196;-2.100;2023-02-11T00:22:27;11.97;;;11.57;;
22068;SDS011;13887;57.196;-2.100;2023-02-11T00:24:54;12.00;;;11.60;;
22068;SDS011;13887;57.196;-2.100;2023-02-11T00:27:22;12.27;;;11.87;;
22068;SDS011;13887;57.196;-2.100;2023-02-11T00:29:50;12.70;;;12.30;;
22068;SDS011;13887;57.196;-2.100;2023-02-11T00:32:17;12.33;;;11.93;;
22068;SDS011;13887;57.196;-2.100;2023-02-11T00:34:44;12.20;;;11.80;;
22068;SDS011;13887;57.196;-2.100;2023-02-11T00:37:11;12.00;;;11.60;;
22068;SDS011;13887;57.196;-2.100;2023-02-11T00:39:40;12.30;;;11.90;;
22068;SDS011;13887;57.196;-2.100;2023-02-11T00:42:07;12.07;;;11.67;;
22068;SDS011;13887;57.196;-2.100;2023-02-11T00:44:34;11.80;;;11.40;;
22068;SDS011;13887;57.196;-2.100;2023-02-11T00:47:01;12.10;;;11.70;;
22068;SDS011;13887;57.196;-2.100;2023-02-11T00:49:28;11.80;;;11.40;;
22068;SDS011;13887;57.196;-2.100;2023-02-11T00:51:55;11.97;;;11.57;;
22068;SDS011;13887;57.196;-2.100;2023-02-11T00:54:22;12.07;;;11.67;;
22068;SDS011;13887;57.196;-2.100;2023-02-11T00:56:49;12.33;;;11.93;;
22068;SDS011;13887;57.196;-2.100;2023-02-11T00:59:16;12.07;;;11.67;;
22068;SDS011;13887;57.196;-2.100;2023-02-11T01:01:43;11.83;;;11.43;;
22068;SDS011;13887;57.196;-2.100;2023-02-11T01:04:10;11.83;;;11.43;;
22068;SDS011;13887;57.196;-2.100;2023-02-11T01:06:38;11.90;;;11.50;;
22068;SDS011;13887;57.196;-2.100;2023-02-11T01:09:05;12.20;;;11.80;;
22068;SDS011;13887;57.196;-2.100;2023-02-11T01:11:33;11.90;;;11.50;;
22068;SDS011;13887;57.196;-2.100;2023-02-11T01:14:01;12.10;;;11.70;;
22068;SDS011;13887;57.196;-2.100;2023-02-11T01:16:28;12.10;;;11.70;;
22068;SDS011;13887;57.196;-2.100;2023-02-11T01:18:55;12.40;;;12.00;;
22068;SDS011;13887;57.196;-2.100;2023-02-11T01:21:24;11.97;;;11.57;;
22068;SDS011;13887;57.196;-2.100;2023-02-11T01:23:51;11.90;;;11.50;;
22068;SDS011;13887;57.196;-2.100;2023-02-11T01:26:19;11.77;;;11.37;;
22068;SDS011;13887;57.196;-2.100;2023-02-11T01:28:45;12.03;;;11.63;;
22068;SDS011;13887;57.196;-2.100;2023-02-11T01:31:13;11.53;;;11.13;;
22068;SDS011;13887;57.196;-2.100;2023-02-11T01:33:40;12.07;;;11.67;;
22068;SDS011;13887;57.196;-2.100;2023-02-11T01:36:10;12.00;;;11.60;;
22068;SDS011;13887;57.196;-2.100;2023-02-11T01:38:37;11.40;;;11.00;;
22068;SDS011;13887;57.196;-2.100;2023-02-11T01:41:08;12.17;;;11.77;;
22068;SDS011;13887;57.196;-2.100;2023-02-11T01:43:41;11.80;;;11.40;;
22068;SDS011;13887;57.196;-2.100;2023-02-11T01:49:04;12.00;;;11.60;;
22068;SDS011;13887;57.196;-2.100;2023-02-11T01:54:10;12.00;;;11.60;;
22068;SDS011;13887;57.196;-2.100;2023-02-11T01:57:02;12.30;;;11.90;;
22068;SDS011;13887;57.196;-2.100;2023-02-11T02:05:29;12.40;;;12.00;;
22068;SDS011;13887;57.196;-2.100;2023-02-11T02:11:00;12.17;;;11.77;;
22068;SDS011;13887;57.196;-2.100;2023-02-11T02:13:29;12.17;;;11.77;;
22068;SDS011;13887;57.196;-2.100;2023-02-11T02:16:05;12.10;;;11.70;;
22068;SDS011;13887;57.196;-2.100;2023-02-11T02:18:45;12.03;;;11.63;;
22068;SDS011;13887;57.196;-2.100;2023-02-11T02:30:25;12.13;;;11.73;;
22068;SDS011;13887;57.196;-2.100;2023-02-11T02:36:08;12.03;;;11.63;;
22068;SDS011;13887;57.196;-2.100;2023-02-11T02:38:58;12.30;;;11.90;;
22068;SDS011;13887;57.196;-2.100;2023-02-11T02:41:30;11.87;;;11.47;;
22068;SDS011;13887;57.196;-2.100;2023-02-11T02:44:00;11.87;;;11.47;;
22068;SDS011;13887;57.196;-2.100;2023-02-11T02:46:31;12.10;;;11.70;;
22068;SDS011;13887;57.196;-2.100;2023-02-11T02:49:00;11.50;;;11.10;;
22068;SDS011;13887;57.196;-2.100;2023-02-11T03:02:17;11.77;;;11.37;;
22068;SDS011;13887;57.196;-2.100;2023-02-11T03:10:02;11.60;;;11.20;;
22068;SDS011;13887;57.196;-2.100;2023-02-11T03:12:34;11.50;;;11.10;;
22068;SDS011;13887;57.196;-2.100;2023-02-11T03:15:04;11.80;;;11.40;;
22068;SDS011;13887;57.196;-2.100;2023-02-11T03:17:33;11.53;;;11.13;;
22068;SDS011;13887;57.196;-2.100;2023-02-11T03:20:02;11.70;;;11.30;;
22068;SDS011;13887;57.196;-2.100;2023-02-11T03:22:34;11.50;;;11.10;;
22068;SDS011;13887;57.196;-2.100;2023-02-11T03:25:06;11.77;;;11.37;;
22068;SDS011;13887;57.196;-2.100;2023-02-11T03:32:50;11.73;;;11.33;;
22068;SDS011;13887;57.196;-2.100;2023-02-11T03:35:26;11.63;;;11.23;;
22068;SDS011;13887;57.196;-2.100;2023-02-11T03:37:59;11.60;;;11.20;;
22068;SDS011;13887;57.196;-2.100;2023-02-11T03:40:54;11.77;;;11.37;;
22068;SDS011;13887;57.196;-2.100;2023-02-11T03:43:25;11.77;;;11.37;;
22068;SDS011;13887;57.196;-2.100;2023-02-11T03:45:56;11.70;;;11.30;;
22068;SDS011;13887;57.196;-2.100;2023-02-11T03:48:28;11.53;;;11.13;;
22068;SDS011;13887;57.196;-2.100;2023-02-11T03:50:58;11.50;;;11.10;;
22068;SDS011;13887;57.196;-2.100;2023-02-11T03:53:30;12.07;;;11.67;;
22068;SDS011;13887;57.196;-2.100;2023-02-11T03:55:59;11.63;;;11.23;;
22068;SDS011;13887;57.196;-2.100;2023-02-11T03:58:30;11.10;;;10.80;;
22068;SDS011;13887;57.196;-2.100;2023-02-11T04:00:57;11.20;;;10.83;;
22068;SDS011;13887;57.196;-2.100;2023-02-11T04:03:24;11.50;;;11.10;;
22068;SDS011;13887;57.196;-2.100;2023-02-11T04:05:51;11.30;;;10.93;;
22068;SDS011;13887;57.196;-2.100;2023-02-11T04:08:18;11.20;;;10.90;;
22068;SDS011;13887;57.196;-2.100;2023-02-11T04:10:46;11.80;;;11.40;;
22068;SDS011;13887;57.196;-2.100;2023-02-11T04:13:13;11.27;;;10.90;;
22068;SDS011;13887;57.196;-2.100;2023-02-11T04:15:40;11.57;;;11.17;;
22068;SDS011;13887;57.196;-2.100;2023-02-11T04:18:07;11.70;;;11.30;;
22068;SDS011;13887;57.196;-2.100;2023-02-11T04:20:34;11.60;;;11.20;;
22068;SDS011;13887;57.196;-2.100;2023-02-11T04:23:01;11.67;;;11.27;;
22068;SDS011;13887;57.196;-2.100;2023-02-11T04:25:28;11.67;;;11.27;;
22068;SDS011;13887;57.196;-2.100;2023-02-11T04:27:55;11.70;;;11.30;;
22068;SDS011;13887;57.196;-2.100;2023-02-11T04:30:22;11.50;;;11.10;;
22068;SDS011;13887;57.196;-2.100;2023-02-11T04:32:49;11.47;;;11.07;;
22068;SDS011;13887;57.196;-2.100;2023-02-11T04:35:16;11.43;;;11.03;;
22068;SDS011;13887;57.196;-2.100;2023-02-11T04:37:43;11.60;;;11.20;;
22068;SDS011;13887;57.196;-2.100;2023-02-11T04:40:10;11.70;;;11.30;;
22068;SDS011;13887;57.196;-2.100;2023-02-11T04:42:37;11.80;;;11.40;;
22068;SDS011;13887;57.196;-2.100;2023-02-11T04:45:04;11.73;;;11.33;;
22068;SDS011;13887;57.196;-2.100;2023-02-11T04:47:32;11.20;;;10.90;;
22068;SDS011;13887;57.196;-2.100;2023-02-11T04:49:59;11.70;;;11.30;;
22068;SDS011;13887;57.196;-2.100;2023-02-11T04:52:26;11.47;;;11.07;;
22068;SDS011;13887;57.196;-2.100;2023-02-11T04:54:53;11.40;;;11.00;;
22068;SDS011;13887;57.196;-2.100;2023-02-11T04:57:20;11.80;;;11.40;;
22068;SDS011;13887;57.196;-2.100;2023-02-11T04:59:47;11.40;;;11.00;;
22068;SDS011;13887;57.196;-2.100;2023-02-11T05:02:14;10.90;;;10.60;;
22068;SDS011;13887;57.196;-2.100;2023-02-11T05:04:41;11.37;;;10.97;;
22068;SDS011;13887;57.196;-2.100;2023-02-11T05:07:08;11.63;;;11.23;;
22068;SDS011;13887;57.196;-2.100;2023-02-11T05:09:35;11.60;;;11.20;;
22068;SDS011;13887;57.196;-2.100;2023-02-11T05:12:02;11.47;;;11.07;;
22068;SDS011;13887;57.196;-2.100;2023-02-11T05:14:29;11.30;;;10.90;;
22068;SDS011;13887;57.196;-2.100;2023-02-11T05:16:56;11.63;;;11.23;;
22068;SDS011;13887;57.196;-2.100;2023-02-11T05:19:23;11.97;;;11.57;;
22068;SDS011;13887;57.196;-2.100;2023-02-11T05:21:50;12.10;;;11.70;;
22068;SDS011;13887;57.196;-2.100;2023-02-11T05:24:30;11.80;;;11.40;;
22068;SDS011;13887;57.196;-2.100;2023-02-11T05:26:57;11.67;;;11.27;;
22068;SDS011;13887;57.196;-2.100;2023-02-11T05:29:24;11.50;;;11.10;;
22068;SDS011;13887;57.196;-2.100;2023-02-11T05:31:51;11.40;;;11.00;;
22068;SDS011;13887;57.196;-2.100;2023-02-11T05:34:19;10.90;;;10.60;;
22068;SDS011;13887;57.196;-2.100;2023-02-11T05:36:46;11.47;;;11.07;;
22068;SDS011;13887;57.196;-2.100;2023-02-11T05:39:13;11.50;;;11.10;;
22068;SDS011;13887;57.196;-2.100;2023-02-11T05:41:39;10.73;;;10.43;;
22068;SDS011;13887;57.196;-2.100;2023-02-11T05:44:06;10.93;;;10.63;;
22068;SDS011;13887;57.196;-2.100;2023-02-11T05:46:33;11.10;;;10.80;;
22068;SDS011;13887;57.196;-2.100;2023-02-11T05:49:00;11.60;;;11.20;;
22068;SDS011;13887;57.196;-2.100;2023-02-11T05:51:27;11.53;;;11.13;;
22068;SDS011;13887;57.196;-2.100;2023-02-11T05:53:54;12.07;;;11.67;;
22068;SDS011;13887;57.196;-2.100;2023-02-11T05:56:22;11.97;;;11.57;;
22068;SDS011;13887;57.196;-2.100;2023-02-11T05:58:49;11.90;;;11.50;;
22068;SDS011;13887;57.196;-2.100;2023-02-11T06:01:16;12.30;;;11.90;;
22068;SDS011;13887;57.196;-2.100;2023-02-11T06:03:44;12.20;;;11.80;;
22068;SDS011;13887;57.196;-2.100;2023-02-11T06:06:11;11.80;;;11.40;;
22068;SDS011;13887;57.196;-2.100;2023-02-11T06:08:38;11.70;;;11.30;;
22068;SDS011;13887;57.196;-2.100;2023-02-11T06:11:05;12.00;;;11.60;;
22068;SDS011;13887;57.196;-2.100;2023-02-11T06:13:33;12.20;;;11.80;;
22068;SDS011;13887;57.196;-2.100;2023-02-11T06:16:01;11.37;;;10.97;;
22068;SDS011;13887;57.196;-2.100;2023-02-11T06:18:29;11.70;;;11.30;;
22068;SDS011;13887;57.196;-2.100;2023-02-11T06:20:56;11.73;;;11.33;;
22068;SDS011;13887;57.196;-2.100;2023-02-11T06:23:23;11.60;;;11.20;;
22068;SDS011;13887;57.196;-2.100;2023-02-11T06:25:50;11.80;;;11.40;;
22068;SDS011;13887;57.196;-2.100;2023-02-11T06:28:18;11.90;;;11.50;;
22068;SDS011;13887;57.196;-2.100;2023-02-11T06:30:45;12.00;;;11.60;;
22068;SDS011;13887;57.196;-2.100;2023-02-11T06:33:12;11.80;;;11.40;;
22068;SDS011;13887;57.196;-2.100;2023-02-11T06:35:39;12.03;;;11.63;;
22068;SDS011;13887;57.196;-2.100;2023-02-11T06:38:06;12.00;;;11.60;;
22068;SDS011;13887;57.196;-2.100;2023-02-11T06:40:33;11.70;;;11.30;;
22068;SDS011;13887;57.196;-2.100;2023-02-11T06:43:00;11.73;;;11.33;;
22068;SDS011;13887;57.196;-2.100;2023-02-11T06:45:27;11.53;;;11.13;;
22068;SDS011;13887;57.196;-2.100;2023-02-11T06:47:54;11.67;;;11.27;;
22068;SDS011;13887;57.196;-2.100;2023-02-11T06:50:21;12.00;;;11.60;;
22068;SDS011;13887;57.196;-2.100;2023-02-11T06:52:48;11.97;;;11.57;;
22068;SDS011;13887;57.196;-2.100;2023-02-11T06:55:15;11.80;;;11.40;;
22068;SDS011;13887;57.196;-2.100;2023-02-11T06:57:42;11.80;;;11.40;;
22068;SDS011;13887;57.196;-2.100;2023-02-11T07:00:09;11.90;;;11.50;;
22068;SDS011;13887;57.196;-2.100;2023-02-11T07:02:36;11.63;;;11.23;;
22068;SDS011;13887;57.196;-2.100;2023-02-11T07:05:04;11.80;;;11.40;;
22068;SDS011;13887;57.196;-2.100;2023-02-11T07:07:32;11.83;;;11.43;;
22068;SDS011;13887;57.196;-2.100;2023-02-11T07:09:59;12.17;;;11.77;;
22068;SDS011;13887;57.196;-2.100;2023-02-11T07:12:29;11.63;;;11.23;;
22068;SDS011;13887;57.196;-2.100;2023-02-11T07:14:56;11.50;;;11.10;;
22068;SDS011;13887;57.196;-2.100;2023-02-11T07:17:23;11.50;;;11.10;;
22068;SDS011;13887;57.196;-2.100;2023-02-11T07:19:50;12.10;;;11.70;;
22068;SDS011;13887;57.196;-2.100;2023-02-11T07:22:17;12.10;;;11.70;;
22068;SDS011;13887;57.196;-2.100;2023-02-11T07:24:44;12.03;;;11.63;;
22068;SDS011;13887;57.196;-2.100;2023-02-11T07:27:11;12.17;;;11.77;;
22068;SDS011;13887;57.196;-2.100;2023-02-11T07:29:38;11.80;;;11.40;;
22068;SDS011;13887;57.196;-2.100;2023-02-11T07:32:05;11.93;;;11.53;;
22068;SDS011;13887;57.196;-2.100;2023-02-11T07:34:32;11.87;;;11.47;;
22068;SDS011;13887;57.196;-2.100;2023-02-11T07:36:59;11.80;;;11.40;;
22068;SDS011;13887;57.196;-2.100;2023-02-11T07:39:26;11.83;;;11.43;;
22068;SDS011;13887;57.196;-2.100;2023-02-11T07:41:55;11.43;;;11.03;;
22068;SDS011;13887;57.196;-2.100;2023-02-11T07:44:22;11.70;;;11.30;;
22068;SDS011;13887;57.196;-2.100;2023-02-11T07:46:49;11.63;;;11.23;;
22068;SDS011;13887;57.196;-2.100;2023-02-11T07:49:16;12.03;;;11.63;;
22068;SDS011;13887;57.196;-2.100;2023-02-11T07:51:43;12.13;;;11.73;;
22068;SDS011;13887;57.196;-2.100;2023-02-11T07:54:11;12.07;;;11.67;;
22068;SDS011;13887;57.196;-2.100;2023-02-11T07:56:38;11.67;;;11.27;;
22068;SDS011;13887;57.196;-2.100;2023-02-11T07:59:05;11.77;;;11.37;;
22068;SDS011;13887;57.196;-2.100;2023-02-11T08:01:32;12.00;;;11.60;;
22068;SDS011;13887;57.196;-2.100;2023-02-11T08:04:00;11.77;;;11.37;;
22068;SDS011;13887;57.196;-2.100;2023-02-11T08:06:29;11.97;;;11.57;;
22068;SDS011;13887;57.196;-2.100;2023-02-11T08:08:57;11.80;;;11.40;;
22068;SDS011;13887;57.196;-2.100;2023-02-11T08:11:30;11.87;;;11.47;;
22068;SDS011;13887;57.196;-2.100;2023-02-11T08:13:58;12.07;;;11.67;;
22068;SDS011;13887;57.196;-2.100;2023-02-11T08:16:32;12.03;;;11.63;;
22068;SDS011;13887;57.196;-2.100;2023-02-11T08:19:01;11.60;;;11.20;;
22068;SDS011;13887;57.196;-2.100;2023-02-11T08:21:31;11.80;;;11.40;;
22068;SDS011;13887;57.196;-2.100;2023-02-11T08:23:59;11.83;;;11.43;;
22068;SDS011;13887;57.196;-2.100;2023-02-11T08:26:28;11.80;;;11.40;;
22068;SDS011;13887;57.196;-2.100;2023-02-11T08:28:57;11.47;;;11.07;;
22068;SDS011;13887;57.196;-2.100;2023-02-11T08:31:26;11.63;;;11.23;;
22068;SDS011;13887;57.196;-2.100;2023-02-11T08:33:55;12.07;;;11.67;;
22068;SDS011;13887;57.196;-2.100;2023-02-11T08:36:26;11.60;;;11.20;;
22068;SDS011;13887;57.196;-2.100;2023-02-11T08:38:56;11.17;;;10.87;;
22068;SDS011;13887;57.196;-2.100;2023-02-11T08:41:43;10.77;;;10.47;;
22068;SDS011;13887;57.196;-2.100;2023-02-11T08:44:11;11.10;;;10.80;;
22068;SDS011;13887;57.196;-2.100;2023-02-11T08:46:38;11.57;;;11.17;;
22068;SDS011;13887;57.196;-2.100;2023-02-11T08:49:05;11.17;;;10.87;;
22068;SDS011;13887;57.196;-2.100;2023-02-11T08:51:32;11.20;;;10.90;;
22068;SDS011;13887;57.196;-2.100;2023-02-11T08:54:00;11.03;;;10.73;;
22068;SDS011;13887;57.196;-2.100;2023-02-11T08:56:31;10.93;;;10.63;;
22068;SDS011;13887;57.196;-2.100;2023-02-11T08:58:58;11.30;;;11.00;;
22068;SDS011;13887;57.196;-2.100;2023-02-11T09:01:26;10.67;;;10.37;;
22068;SDS011;13887;57.196;-2.100;2023-02-11T09:03:55;10.70;;;10.40;;
22068;SDS011;13887;57.196;-2.100;2023-02-11T09:06:23;11.10;;;10.80;;
22068;SDS011;13887;57.196;-2.100;2023-02-11T09:08:52;10.73;;;10.43;;
22068;SDS011;13887;57.196;-2.100;2023-02-11T09:11:26;10.87;;;10.57;;
22068;SDS011;13887;57.196;-2.100;2023-02-11T09:13:54;10.47;;;10.17;;
22068;SDS011;13887;57.196;-2.100;2023-02-11T09:16:26;10.73;;;10.43;;
22068;SDS011;13887;57.196;-2.100;2023-02-11T09:18:56;11.60;;;11.20;;
22068;SDS011;13887;57.196;-2.100;2023-02-11T09:21:24;10.60;;;10.30;;
22068;SDS011;13887;57.196;-2.100;2023-02-11T09:23:52;10.83;;;10.53;;
22068;SDS011;13887;57.196;-2.100;2023-02-11T09:26:21;10.83;;;10.53;;
22068;SDS011;13887;57.196;-2.100;2023-02-11T09:28:50;11.10;;;10.80;;
22068;SDS011;13887;57.196;-2.100;2023-02-11T09:31:19;11.40;;;11.00;;
22068;SDS011;13887;57.196;-2.100;2023-02-11T09:33:49;10.67;;;10.37;;
22068;SDS011;13887;57.196;-2.100;2023-02-11T09:36:20;10.30;;;10.00;;
22068;SDS011;13887;57.196;-2.100;2023-02-11T09:38:48;10.23;;;9.93;;
22068;SDS011;13887;57.196;-2.100;2023-02-11T09:43:52;10.43;;;10.13;;
22068;SDS011;13887;57.196;-2.100;2023-02-11T09:46:22;10.97;;;10.67;;
22068;SDS011;13887;57.196;-2.100;2023-02-11T09:48:52;10.50;;;10.20;;
22068;SDS011;13887;57.196;-2.100;2023-02-11T09:54:10;10.57;;;10.27;;
22068;SDS011;13887;57.196;-2.100;2023-02-11T09:56:42;10.87;;;10.57;;
22068;SDS011;13887;57.196;-2.100;2023-02-11T09:59:11;11.07;;;10.77;;
22068;SDS011;13887;57.196;-2.100;2023-02-11T10:01:44;11.43;;;11.03;;
22068;SDS011;13887;57.196;-2.100;2023-02-11T10:07:50;11.13;;;10.83;;
22068;SDS011;13887;57.196;-2.100;2023-02-11T10:16:16;11.10;;;10.80;;
22068;SDS011;13887;57.196;-2.100;2023-02-11T10:19:01;11.53;;;11.13;;
22068;SDS011;13887;57.196;-2.100;2023-02-11T10:21:50;11.00;;;10.70;;
22068;SDS011;13887;57.196;-2.100;2023-02-11T10:24:31;11.33;;;10.93;;
22068;SDS011;13887;57.196;-2.100;2023-02-11T10:27:01;11.47;;;11.07;;
22068;SDS011;13887;57.196;-2.100;2023-02-11T10:29:39;10.83;;;10.53;;
22068;SDS011;13887;57.196;-2.100;2023-02-11T10:32:23;11.17;;;10.87;;
22068;SDS011;13887;57.196;-2.100;2023-02-11T10:35:09;11.57;;;11.17;;
22068;SDS011;13887;57.196;-2.100;2023-02-11T10:37:41;11.43;;;11.03;;
22068;SDS011;13887;57.196;-2.100;2023-02-11T10:40:17;11.43;;;11.03;;
22068;SDS011;13887;57.196;-2.100;2023-02-11T10:42:48;11.80;;;11.40;;
22068;SDS011;13887;57.196;-2.100;2023-02-11T10:45:35;11.40;;;11.00;;
22068;SDS011;13887;57.196;-2.100;2023-02-11T10:48:05;11.70;;;11.30;;
22068;SDS011;13887;57.196;-2.100;2023-02-11T10:51:05;10.87;;;10.57;;
22068;SDS011;13887;57.196;-2.100;2023-02-11T10:53:40;11.17;;;10.87;;
22068;SDS011;13887;57.196;-2.100;2023-02-11T10:56:09;10.97;;;10.67;;
22068;SDS011;13887;57.196;-2.100;2023-02-11T10:58:43;11.30;;;10.90;;
22068;SDS011;13887;57.196;-2.100;2023-02-11T11:01:12;11.17;;;10.83;;
22068;SDS011;13887;57.196;-2.100;2023-02-11T11:03:50;11.67;;;11.27;;
22068;SDS011;13887;57.196;-2.100;2023-02-11T11:06:27;11.07;;;10.77;;
22068;SDS011;13887;57.196;-2.100;2023-02-11T11:08:58;11.57;;;11.17;;
22068;SDS011;13887;57.196;-2.100;2023-02-11T11:11:25;11.13;;;10.83;;
22068;SDS011;13887;57.196;-2.100;2023-02-11T11:24:00;11.20;;;10.90;;
22068;SDS011;13887;57.196;-2.100;2023-02-11T11:26:45;11.00;;;10.70;;
22068;SDS011;13887;57.196;-2.100;2023-02-11T11:29:16;11.63;;;11.23;;
22068;SDS011;13887;57.196;-2.100;2023-02-11T11:31:49;11.60;;;11.20;;
22068;SDS011;13887;57.196;-2.100;2023-02-11T11:34:26;11.07;;;10.77;;
22068;SDS011;13887;57.196;-2.100;2023-02-11T11:36:55;10.70;;;10.40;;
22068;SDS011;13887;57.196;-2.100;2023-02-11T11:39:26;10.63;;;10.33;;
22068;SDS011;13887;57.196;-2.100;2023-02-11T11:42:00;10.17;;;9.87;;
22068;SDS011;13887;57.196;-2.100;2023-02-11T11:44:32;10.30;;;10.00;;
22068;SDS011;13887;57.196;-2.100;2023-02-11T11:57:51;10.77;;;10.47;;
22068;SDS011;13887;57.196;-2.100;2023-02-11T12:00:19;10.70;;;10.40;;
22068;SDS011;13887;57.196;-2.100;2023-02-11T12:14:27;10.10;;;9.80;;
22068;SDS011;13887;57.196;-2.100;2023-02-11T12:17:13;10.87;;;10.57;;
22068;SDS011;13887;57.196;-2.100;2023-02-11T12:25:40;10.87;;;10.57;;
22068;SDS011;13887;57.196;-2.100;2023-02-11T12:54:53;11.90;;;11.50;;
22068;SDS011;13887;57.196;-2.100;2023-02-11T12:57:30;12.10;;;11.70;;
22068;SDS011;13887;57.196;-2.100;2023-02-11T13:02:28;11.80;;;11.40;;
22068;SDS011;13887;57.196;-2.100;2023-02-11T13:08:42;10.83;;;10.53;;
22068;SDS011;13887;57.196;-2.100;2023-02-11T13:11:03;11.67;;;11.27;;
22068;SDS011;13887;57.196;-2.100;2023-02-11T13:14:14;11.37;;;11.00;;
22068;SDS011;13887;57.196;-2.100;2023-02-11T13:16:45;10.43;;;10.13;;
22068;SDS011;13887;57.196;-2.100;2023-02-11T13:22:12;10.30;;;10.00;;
22068;SDS011;13887;57.196;-2.100;2023-02-11T13:27:53;10.57;;;10.27;;
22068;SDS011;13887;57.196;-2.100;2023-02-11T13:30:27;10.90;;;10.60;;
22068;SDS011;13887;57.196;-2.100;2023-02-11T13:38:05;11.00;;;10.70;;
22068;SDS011;13887;57.196;-2.100;2023-02-11T13:43:32;10.90;;;10.60;;
22068;SDS011;13887;57.196;-2.100;2023-02-11T13:46:01;11.13;;;10.83;;
22068;SDS011;13887;57.196;-2.100;2023-02-11T13:48:32;10.93;;;10.63;;
22068;SDS011;13887;57.196;-2.100;2023-02-11T13:51:07;11.80;;;11.40;;
22068;SDS011;13887;57.196;-2.100;2023-02-11T13:53:55;11.63;;;11.23;;
22068;SDS011;13887;57.196;-2.100;2023-02-11T13:56:28;10.93;;;10.63;;
22068;SDS011;13887;57.196;-2.100;2023-02-11T13:58:58;11.60;;;11.20;;
22068;SDS011;13887;57.196;-2.100;2023-02-11T14:04:32;10.97;;;10.67;;
22068;SDS011;13887;57.196;-2.100;2023-02-11T14:07:26;11.67;;;11.27;;
22068;SDS011;13887;57.196;-2.100;2023-02-11T14:13:18;11.43;;;11.03;;
22068;SDS011;13887;57.196;-2.100;2023-02-11T14:18:37;10.67;;;10.37;;
22068;SDS011;13887;57.196;-2.100;2023-02-11T14:21:14;11.00;;;10.70;;
22068;SDS011;13887;57.196;-2.100;2023-02-11T14:23:43;10.33;;;10.03;;
22068;SDS011;13887;57.196;-2.100;2023-02-11T14:37:15;10.13;;;9.83;;
22068;SDS011;13887;57.196;-2.100;2023-02-11T14:42:49;10.27;;;9.97;;
22068;SDS011;13887;57.196;-2.100;2023-02-11T14:45:19;10.77;;;10.47;;
22068;SDS011;13887;57.196;-2.100;2023-02-11T14:47:53;11.50;;;11.10;;
22068;SDS011;13887;57.196;-2.100;2023-02-11T14:50:42;10.37;;;10.07;;
22068;SDS011;13887;57.196;-2.100;2023-02-11T14:53:14;10.90;;;10.60;;
22068;SDS011;13887;57.196;-2.100;2023-02-11T14:55:45;10.77;;;10.47;;
22068;SDS011;13887;57.196;-2.100;2023-02-11T14:58:18;10.30;;;10.00;;
22068;SDS011;13887;57.196;-2.100;2023-02-11T15:01:22;10.10;;;9.80;;
22068;SDS011;13887;57.196;-2.100;2023-02-11T15:04:04;10.13;;;9.83;;
22068;SDS011;13887;57.196;-2.100;2023-02-11T15:06:47;10.23;;;9.93;;
22068;SDS011;13887;57.196;-2.100;2023-02-11T15:09:21;10.43;;;10.13;;
22068;SDS011;13887;57.196;-2.100;2023-02-11T15:11:59;10.30;;;10.00;;
22068;SDS011;13887;57.196;-2.100;2023-02-11T15:14:27;10.27;;;9.97;;
22068;SDS011;13887;57.196;-2.100;2023-02-11T15:16:58;10.03;;;9.73;;
22068;SDS011;13887;57.196;-2.100;2023-02-11T15:19:40;10.50;;;10.20;;
22068;SDS011;13887;57.196;-2.100;2023-02-11T15:22:19;11.30;;;10.90;;
22068;SDS011;13887;57.196;-2.100;2023-02-11T15:27:25;11.00;;;10.70;;
22068;SDS011;13887;57.196;-2.100;2023-02-11T15:29:52;10.00;;;9.70;;
22068;SDS011;13887;57.196;-2.100;2023-02-11T15:34:48;11.00;;;10.70;;
22068;SDS011;13887;57.196;-2.100;2023-02-11T15:37:27;10.73;;;10.43;;
22068;SDS011;13887;57.196;-2.100;2023-02-11T15:43:01;10.70;;;10.40;;
22068;SDS011;13887;57.196;-2.100;2023-02-11T15:48:08;10.90;;;10.60;;
22068;SDS011;13887;57.196;-2.100;2023-02-11T15:50:39;11.00;;;10.70;;
22068;SDS011;13887;57.196;-2.100;2023-02-11T15:55:48;11.03;;;10.73;;
22068;SDS011;13887;57.196;-2.100;2023-02-11T15:58:17;11.00;;;10.70;;
22068;SDS011;13887;57.196;-2.100;2023-02-11T16:00:48;10.87;;;10.57;;
22068;SDS011;13887;57.196;-2.100;2023-02-11T16:03:21;11.67;;;11.27;;
22068;SDS011;13887;57.196;-2.100;2023-02-11T16:05:50;10.47;;;10.17;;
22068;SDS011;13887;57.196;-2.100;2023-02-11T16:08:22;10.90;;;10.60;;
22068;SDS011;13887;57.196;-2.100;2023-02-11T16:10:56;10.43;;;10.13;;
22068;SDS011;13887;57.196;-2.100;2023-02-11T16:13:29;11.20;;;10.80;;
22068;SDS011;13887;57.196;-2.100;2023-02-11T16:16:01;10.90;;;10.60;;
22068;SDS011;13887;57.196;-2.100;2023-02-11T16:21:06;10.83;;;10.53;;
22068;SDS011;13887;57.196;-2.100;2023-02-11T16:23:41;10.90;;;10.60;;
22068;SDS011;13887;57.196;-2.100;2023-02-11T16:26:21;10.23;;;9.93;;
22068;SDS011;13887;57.196;-2.100;2023-02-11T16:29:09;10.40;;;10.10;;
22068;SDS011;13887;57.196;-2.100;2023-02-11T16:31:40;10.47;;;10.17;;
22068;SDS011;13887;57.196;-2.100;2023-02-11T16:34:20;10.67;;;10.37;;
22068;SDS011;13887;57.196;-2.100;2023-02-11T16:36:49;10.30;;;10.00;;
22068;SDS011;13887;57.196;-2.100;2023-02-11T16:39:17;10.53;;;10.23;;
22068;SDS011;13887;57.196;-2.100;2023-02-11T16:41:49;10.87;;;10.57;;
22068;SDS011;13887;57.196;-2.100;2023-02-11T16:44:17;10.63;;;10.33;;
22068;SDS011;13887;57.196;-2.100;2023-02-11T16:46:44;10.07;;;9.77;;
22068;SDS011;13887;57.196;-2.100;2023-02-11T16:49:21;10.67;;;10.37;;
22068;SDS011;13887;57.196;-2.100;2023-02-11T16:51:50;10.60;;;10.30;;
22068;SDS011;13887;57.196;-2.100;2023-02-11T16:54:18;11.00;;;10.67;;
22068;SDS011;13887;57.196;-2.100;2023-02-11T16:56:46;11.20;;;10.80;;
22068;SDS011;13887;57.196;-2.100;2023-02-11T16:59:13;10.73;;;10.43;;
22068;SDS011;13887;57.196;-2.100;2023-02-11T17:01:41;10.67;;;10.37;;
22068;SDS011;13887;57.196;-2.100;2023-02-11T17:04:15;10.63;;;10.33;;
22068;SDS011;13887;57.196;-2.100;2023-02-11T17:06:45;10.73;;;10.43;;
22068;SDS011;13887;57.196;-2.100;2023-02-11T17:09:20;11.40;;;11.00;;
22068;SDS011;13887;57.196;-2.100;2023-02-11T17:11:50;10.50;;;10.20;;
22068;SDS011;13887;57.196;-2.100;2023-02-11T17:14:18;10.90;;;10.60;;
22068;SDS011;13887;57.196;-2.100;2023-02-11T17:16:46;11.07;;;10.77;;
22068;SDS011;13887;57.196;-2.100;2023-02-11T17:19:17;10.60;;;10.30;;
22068;SDS011;13887;57.196;-2.100;2023-02-11T17:21:45;11.03;;;10.73;;
22068;SDS011;13887;57.196;-2.100;2023-02-11T17:24:13;11.37;;;10.97;;
22068;SDS011;13887;57.196;-2.100;2023-02-11T17:26:41;10.63;;;10.33;;
22068;SDS011;13887;57.196;-2.100;2023-02-11T17:29:10;11.00;;;10.70;;
22068;SDS011;13887;57.196;-2.100;2023-02-11T17:31:40;11.13;;;10.80;;
22068;SDS011;13887;57.196;-2.100;2023-02-11T17:34:07;10.80;;;10.50;;